sensor_id;sensor_type;location;lat;lon;timestamp;temperature;humidity
66928;DHT22;59882;45.624;11.698;2023-05-16T00:02:06;17.40;66.40
66928;DHT22;59882;45.624;11.698;2023-05-16T00:04:31;17.40;66.10
66928;DHT22;59882;45.624;11.698;2023-05-16T00:06:57;17.40;66.10
66928;DHT22;59882;45.624;11.698;2023-05-16T00:09:23;17.40;66.00
66928;DHT22;59882;45.624;11.698;2023-05-16T00:11:49;17.40;66.20
66928;DHT22;59882;45.624;11.698;2023-05-16T00:14:15;17.40;66.20
66928;DHT22;59882;45.624;11.698;2023-05-16T00:16:41;17.40;66.40
66928;DHT22;59882;45.624;11.698;2023-05-16T00:19:07;17.40;66.10
66928;DHT22;59882;45.624;11.698;2023-05-16T00:21:33;17.40;66.10
66928;DHT22;59882;45.624;11.698;2023-05-16T00:23:58;17.40;66.00
66928;DHT22;59882;45.624;11.698;2023-05-16T00:26:24;17.40;65.90
66928;DHT22;59882;45.624;11.698;2023-05-16T00:28:50;17.40;65.80
66928;DHT22;59882;45.624;11.698;2023-05-16T00:31:16;17.40;65.50
66928;DHT22;59882;45.624;11.698;2023-05-16T00:33:41;17.40;65.40
66928;DHT22;59882;45.624;11.698;2023-05-16T00:36:07;17.40;65.30
66928;DHT22;59882;45.624;11.698;2023-05-16T00:38:33;17.40;65.60
66928;DHT22;59882;45.624;11.698;2023-05-16T00:40:58;17.40;65.70
66928;DHT22;59882;45.624;11.698;2023-05-16T00:43:24;17.40;65.60
66928;DHT22;59882;45.624;11.698;2023-05-16T00:45:50;17.40;65.90
66928;DHT22;59882;45.624;11.698;2023-05-16T00:48:16;17.40;65.90
66928;DHT22;59882;45.624;11.698;2023-05-16T00:50:41;17.40;65.80
66928;DHT22;59882;45.624;11.698;2023-05-16T00:53:07;17.40;66.00
66928;DHT22;59882;45.624;11.698;2023-05-16T00:55:33;17.40;65.20
66928;DHT22;59882;45.624;11.698;2023-05-16T00:57:59;17.40;65.70
66928;DHT22;59882;45.624;11.698;2023-05-16T01:00:24;17.40;65.20
66928;DHT22;59882;45.624;11.698;2023-05-16T01:02:50;17.40;65.20
66928;DHT22;59882;45.624;11.698;2023-05-16T01:05:18;17.40;65.10
66928;DHT22;59882;45.624;11.698;2023-05-16T01:07:44;17.40;64.80
66928;DHT22;59882;45.624;11.698;2023-05-16T01:10:11;17.40;64.80
66928;DHT22;59882;45.624;11.698;2023-05-16T01:15:41;17.40;65.00
66928;DHT22;59882;45.624;11.698;2023-05-16T01:21:04;17.30;65.30
66928;DHT22;59882;45.624;11.698;2023-05-16T01:26:08;17.30;65.20
66928;DHT22;59882;45.624;11.698;2023-05-16T01:28:35;17.30;65.40
66928;DHT22;59882;45.624;11.698;2023-05-16T01:31:01;17.30;65.00
66928;DHT22;59882;45.624;11.698;2023-05-16T01:33:27;17.30;65.10
66928;DHT22;59882;45.624;11.698;2023-05-16T01:39:08;17.20;64.90
66928;DHT22;59882;45.624;11.698;2023-05-16T01:41:46;17.30;64.80
66928;DHT22;59882;45.624;11.698;2023-05-16T01:46:56;17.20;65.00
66928;DHT22;59882;45.624;11.698;2023-05-16T01:49:28;17.20;64.90
66928;DHT22;59882;45.624;11.698;2023-05-16T01:52:00;17.20;64.70
66928;DHT22;59882;45.624;11.698;2023-05-16T01:54:30;17.20;64.70
66928;DHT22;59882;45.624;11.698;2023-05-16T01:56:56;17.20;64.80
66928;DHT22;59882;45.624;11.698;2023-05-16T01:59:23;17.10;64.80
66928;DHT22;59882;45.624;11.698;2023-05-16T02:02:01;17.10;65.00
66928;DHT22;59882;45.624;11.698;2023-05-16T02:04:27;17.10;64.70
66928;DHT22;59882;45.624;11.698;2023-05-16T02:06:53;17.00;64.60
66928;DHT22;59882;45.624;11.698;2023-05-16T02:09:19;17.00;64.90
66928;DHT22;59882;45.624;11.698;2023-05-16T02:11:45;17.00;64.60
66928;DHT22;59882;45.624;11.698;2023-05-16T02:14:11;17.10;64.50
66928;DHT22;59882;45.624;11.698;2023-05-16T02:16:37;17.10;64.90
66928;DHT22;59882;45.624;11.698;2023-05-16T02:19:03;17.00;64.50
66928;DHT22;59882;45.624;11.698;2023-05-16T02:21:29;17.00;64.50
66928;DHT22;59882;45.624;11.698;2023-05-16T02:23:55;17.10;64.90
66928;DHT22;59882;45.624;11.698;2023-05-16T02:26:21;17.00;65.00
66928;DHT22;59882;45.624;11.698;2023-05-16T02:28:46;17.00;64.90
66928;DHT22;59882;45.624;11.698;2023-05-16T02:31:26;16.90;65.00
66928;DHT22;59882;45.624;11.698;2023-05-16T02:33:52;16.90;64.70
66928;DHT22;59882;45.624;11.698;2023-05-16T02:36:18;17.00;65.10
66928;DHT22;59882;45.624;11.698;2023-05-16T02:38:43;16.90;64.80
66928;DHT22;59882;45.624;11.698;2023-05-16T02:41:09;17.00;64.80
66928;DHT22;59882;45.624;11.698;2023-05-16T02:43:35;17.00;65.20
66928;DHT22;59882;45.624;11.698;2023-05-16T02:46:03;17.10;64.60
66928;DHT22;59882;45.624;11.698;2023-05-16T02:48:29;17.10;64.70
66928;DHT22;59882;45.624;11.698;2023-05-16T02:50:54;17.10;64.50
66928;DHT22;59882;45.624;11.698;2023-05-16T02:53:20;17.10;63.80
66928;DHT22;59882;45.624;11.698;2023-05-16T02:55:46;17.10;64.00
66928;DHT22;59882;45.624;11.698;2023-05-16T02:58:11;17.10;63.20
66928;DHT22;59882;45.624;11.698;2023-05-16T03:00:37;17.20;63.70
66928;DHT22;59882;45.624;11.698;2023-05-16T03:03:03;17.20;63.90
66928;DHT22;59882;45.624;11.698;2023-05-16T03:05:29;17.20;64.10
66928;DHT22;59882;45.624;11.698;2023-05-16T03:07:56;17.20;63.90
66928;DHT22;59882;45.624;11.698;2023-05-16T03:10:21;17.20;64.00
66928;DHT22;59882;45.624;11.698;2023-05-16T03:12:47;17.20;64.20
66928;DHT22;59882;45.624;11.698;2023-05-16T03:15:13;17.20;64.90
66928;DHT22;59882;45.624;11.698;2023-05-16T03:17:38;17.20;64.90
66928;DHT22;59882;45.624;11.698;2023-05-16T03:20:06;17.20;65.90
66928;DHT22;59882;45.624;11.698;2023-05-16T03:22:33;17.10;66.10
66928;DHT22;59882;45.624;11.698;2023-05-16T03:24:58;17.10;67.30
66928;DHT22;59882;45.624;11.698;2023-05-16T03:27:25;17.00;67.50
66928;DHT22;59882;45.624;11.698;2023-05-16T03:29:52;16.90;67.00
66928;DHT22;59882;45.624;11.698;2023-05-16T03:32:17;16.90;68.20
66928;DHT22;59882;45.624;11.698;2023-05-16T03:34:43;16.80;68.20
66928;DHT22;59882;45.624;11.698;2023-05-16T03:37:08;16.80;68.80
66928;DHT22;59882;45.624;11.698;2023-05-16T03:39:35;16.80;68.30
66928;DHT22;59882;45.624;11.698;2023-05-16T03:42:01;16.80;68.20
66928;DHT22;59882;45.624;11.698;2023-05-16T03:44:26;16.70;68.60
66928;DHT22;59882;45.624;11.698;2023-05-16T03:46:52;16.80;68.40
66928;DHT22;59882;45.624;11.698;2023-05-16T03:52:36;16.70;68.50
66928;DHT22;59882;45.624;11.698;2023-05-16T03:55:02;16.70;68.70
66928;DHT22;59882;45.624;11.698;2023-05-16T03:57:32;16.70;69.00
66928;DHT22;59882;45.624;11.698;2023-05-16T03:59:58;16.70;68.90
66928;DHT22;59882;45.624;11.698;2023-05-16T04:02:24;16.70;69.40
66928;DHT22;59882;45.624;11.698;2023-05-16T04:04:49;16.60;70.00
66928;DHT22;59882;45.624;11.698;2023-05-16T04:07:15;16.60;69.80
66928;DHT22;59882;45.624;11.698;2023-05-16T04:09:41;16.60;70.10
66928;DHT22;59882;45.624;11.698;2023-05-16T04:12:07;16.60;69.90
66928;DHT22;59882;45.624;11.698;2023-05-16T04:14:34;16.60;70.40
66928;DHT22;59882;45.624;11.698;2023-05-16T04:16:59;16.60;70.40
66928;DHT22;59882;45.624;11.698;2023-05-16T04:19:25;16.60;71.00
66928;DHT22;59882;45.624;11.698;2023-05-16T04:21:51;16.60;70.60
66928;DHT22;59882;45.624;11.698;2023-05-16T04:24:17;16.60;70.70
66928;DHT22;59882;45.624;11.698;2023-05-16T04:26:43;16.60;70.40
66928;DHT22;59882;45.624;11.698;2023-05-16T04:29:09;16.60;70.30
66928;DHT22;59882;45.624;11.698;2023-05-16T04:31:35;16.60;70.60
66928;DHT22;59882;45.624;11.698;2023-05-16T04:34:01;16.60;70.80
66928;DHT22;59882;45.624;11.698;2023-05-16T04:36:27;16.60;71.10
66928;DHT22;59882;45.624;11.698;2023-05-16T04:38:55;16.60;71.70
66928;DHT22;59882;45.624;11.698;2023-05-16T04:41:21;16.60;71.30
66928;DHT22;59882;45.624;11.698;2023-05-16T04:43:48;16.60;70.90
66928;DHT22;59882;45.624;11.698;2023-05-16T04:46:14;16.60;70.90
66928;DHT22;59882;45.624;11.698;2023-05-16T04:48:42;16.60;70.60
66928;DHT22;59882;45.624;11.698;2023-05-16T04:51:08;16.60;71.00
66928;DHT22;59882;45.624;11.698;2023-05-16T04:53:34;16.60;70.90
66928;DHT22;59882;45.624;11.698;2023-05-16T04:55:59;16.60;70.90
66928;DHT22;59882;45.624;11.698;2023-05-16T04:58:25;16.50;71.10
66928;DHT22;59882;45.624;11.698;2023-05-16T05:00:51;16.60;70.90
66928;DHT22;59882;45.624;11.698;2023-05-16T05:03:17;16.60;72.30
66928;DHT22;59882;45.624;11.698;2023-05-16T05:05:43;16.50;71.30
66928;DHT22;59882;45.624;11.698;2023-05-16T05:08:09;16.50;71.60
66928;DHT22;59882;45.624;11.698;2023-05-16T05:10:35;16.50;71.90
66928;DHT22;59882;45.624;11.698;2023-05-16T05:13:01;16.50;72.20
66928;DHT22;59882;45.624;11.698;2023-05-16T05:15:27;16.40;72.50
66928;DHT22;59882;45.624;11.698;2023-05-16T05:17:53;16.40;71.90
66928;DHT22;59882;45.624;11.698;2023-05-16T05:20:18;16.40;71.70
66928;DHT22;59882;45.624;11.698;2023-05-16T05:22:44;16.40;72.50
66928;DHT22;59882;45.624;11.698;2023-05-16T05:25:09;16.30;72.10
66928;DHT22;59882;45.624;11.698;2023-05-16T05:27:35;16.40;71.80
66928;DHT22;59882;45.624;11.698;2023-05-16T05:30:02;16.40;72.00
66928;DHT22;59882;45.624;11.698;2023-05-16T05:32:28;16.40;72.20
66928;DHT22;59882;45.624;11.698;2023-05-16T05:34:53;16.50;71.60
66928;DHT22;59882;45.624;11.698;2023-05-16T05:37:19;16.50;71.60
66928;DHT22;59882;45.624;11.698;2023-05-16T05:39:45;16.50;71.00
66928;DHT22;59882;45.624;11.698;2023-05-16T05:42:11;16.50;71.00
66928;DHT22;59882;45.624;11.698;2023-05-16T05:44:37;16.50;71.20
66928;DHT22;59882;45.624;11.698;2023-05-16T05:47:03;16.50;70.90
66928;DHT22;59882;45.624;11.698;2023-05-16T05:49:30;16.50;71.00
66928;DHT22;59882;45.624;11.698;2023-05-16T05:51:56;16.50;71.10
66928;DHT22;59882;45.624;11.698;2023-05-16T05:54:22;16.50;71.00
66928;DHT22;59882;45.624;11.698;2023-05-16T05:56:48;16.60;71.20
66928;DHT22;59882;45.624;11.698;2023-05-16T05:59:13;16.60;71.40
66928;DHT22;59882;45.624;11.698;2023-05-16T06:01:39;16.70;71.10
66928;DHT22;59882;45.624;11.698;2023-05-16T06:04:05;16.70;70.50
66928;DHT22;59882;45.624;11.698;2023-05-16T06:06:31;16.80;70.50
66928;DHT22;59882;45.624;11.698;2023-05-16T06:09:00;16.90;70.90
66928;DHT22;59882;45.624;11.698;2023-05-16T06:11:25;16.90;71.70
66928;DHT22;59882;45.624;11.698;2023-05-16T06:13:51;16.90;72.50
66928;DHT22;59882;45.624;11.698;2023-05-16T06:16:17;17.00;71.60
66928;DHT22;59882;45.624;11.698;2023-05-16T06:18:43;17.00;71.60
66928;DHT22;59882;45.624;11.698;2023-05-16T06:21:09;17.00;72.90
66928;DHT22;59882;45.624;11.698;2023-05-16T06:23:35;17.00;72.60
66928;DHT22;59882;45.624;11.698;2023-05-16T06:26:01;17.00;72.70
66928;DHT22;59882;45.624;11.698;2023-05-16T06:28:28;17.00;72.30
66928;DHT22;59882;45.624;11.698;2023-05-16T06:30:53;17.00;72.70
66928;DHT22;59882;45.624;11.698;2023-05-16T06:33:19;17.00;72.80
66928;DHT22;59882;45.624;11.698;2023-05-16T06:35:45;17.00;72.80
66928;DHT22;59882;45.624;11.698;2023-05-16T06:38:14;16.90;73.10
66928;DHT22;59882;45.624;11.698;2023-05-16T06:40:39;16.90;73.00
66928;DHT22;59882;45.624;11.698;2023-05-16T06:43:05;16.90;72.80
66928;DHT22;59882;45.624;11.698;2023-05-16T06:45:31;16.90;72.40
66928;DHT22;59882;45.624;11.698;2023-05-16T06:47:57;16.90;71.90
66928;DHT22;59882;45.624;11.698;2023-05-16T06:50:23;17.00;71.90
66928;DHT22;59882;45.624;11.698;2023-05-16T06:52:48;16.90;71.80
66928;DHT22;59882;45.624;11.698;2023-05-16T06:55:14;16.90;71.80
66928;DHT22;59882;45.624;11.698;2023-05-16T06:57:40;16.90;71.80
66928;DHT22;59882;45.624;11.698;2023-05-16T07:00:06;16.90;71.90
66928;DHT22;59882;45.624;11.698;2023-05-16T07:02:32;16.90;71.80
66928;DHT22;59882;45.624;11.698;2023-05-16T07:04:58;16.90;71.90
66928;DHT22;59882;45.624;11.698;2023-05-16T07:07:24;16.90;71.90
66928;DHT22;59882;45.624;11.698;2023-05-16T07:09:49;16.90;72.30
66928;DHT22;59882;45.624;11.698;2023-05-16T07:12:15;16.80;72.30
66928;DHT22;59882;45.624;11.698;2023-05-16T07:14:42;16.80;72.40
66928;DHT22;59882;45.624;11.698;2023-05-16T07:17:08;16.60;72.30
66928;DHT22;59882;45.624;11.698;2023-05-16T07:19:34;16.60;72.30
66928;DHT22;59882;45.624;11.698;2023-05-16T07:21:59;16.40;73.00
66928;DHT22;59882;45.624;11.698;2023-05-16T07:24:25;16.40;73.20
66928;DHT22;59882;45.624;11.698;2023-05-16T07:26:51;16.30;74.00
66928;DHT22;59882;45.624;11.698;2023-05-16T07:29:17;16.30;73.70
66928;DHT22;59882;45.624;11.698;2023-05-16T07:31:43;16.30;74.20
66928;DHT22;59882;45.624;11.698;2023-05-16T07:34:09;16.30;75.60
66928;DHT22;59882;45.624;11.698;2023-05-16T07:36:35;16.30;75.70
66928;DHT22;59882;45.624;11.698;2023-05-16T07:39:01;16.20;75.50
66928;DHT22;59882;45.624;11.698;2023-05-16T07:41:31;16.20;75.00
66928;DHT22;59882;45.624;11.698;2023-05-16T07:43:56;16.20;74.90
66928;DHT22;59882;45.624;11.698;2023-05-16T07:46:22;16.30;74.40
66928;DHT22;59882;45.624;11.698;2023-05-16T07:48:48;16.30;74.50
66928;DHT22;59882;45.624;11.698;2023-05-16T07:51:13;16.40;74.00
66928;DHT22;59882;45.624;11.698;2023-05-16T07:53:39;16.50;74.10
66928;DHT22;59882;45.624;11.698;2023-05-16T07:56:05;16.60;74.10
66928;DHT22;59882;45.624;11.698;2023-05-16T07:58:31;16.60;74.00
66928;DHT22;59882;45.624;11.698;2023-05-16T08:00:57;16.70;74.10
66928;DHT22;59882;45.624;11.698;2023-05-16T08:03:23;16.80;74.00
66928;DHT22;59882;45.624;11.698;2023-05-16T08:05:49;16.80;75.10
66928;DHT22;59882;45.624;11.698;2023-05-16T08:08:14;16.80;75.00
66928;DHT22;59882;45.624;11.698;2023-05-16T08:10:40;16.90;74.70
66928;DHT22;59882;45.624;11.698;2023-05-16T08:13:06;16.90;74.30
66928;DHT22;59882;45.624;11.698;2023-05-16T08:15:31;16.90;74.00
66928;DHT22;59882;45.624;11.698;2023-05-16T08:17:57;16.90;73.90
66928;DHT22;59882;45.624;11.698;2023-05-16T08:20:24;16.90;73.60
66928;DHT22;59882;45.624;11.698;2023-05-16T08:22:50;16.90;74.00
66928;DHT22;59882;45.624;11.698;2023-05-16T08:25:16;16.90;73.80
66928;DHT22;59882;45.624;11.698;2023-05-16T08:27:43;16.90;73.50
66928;DHT22;59882;45.624;11.698;2023-05-16T08:30:10;16.90;73.50
66928;DHT22;59882;45.624;11.698;2023-05-16T08:32:36;16.90;73.40
66928;DHT22;59882;45.624;11.698;2023-05-16T08:35:02;16.90;73.60
66928;DHT22;59882;45.624;11.698;2023-05-16T08:37:28;16.90;73.80
66928;DHT22;59882;45.624;11.698;2023-05-16T08:39:53;16.80;75.30
66928;DHT22;59882;45.624;11.698;2023-05-16T08:42:19;16.70;75.70
66928;DHT22;59882;45.624;11.698;2023-05-16T08:44:45;16.70;75.20
66928;DHT22;59882;45.624;11.698;2023-05-16T08:47:12;16.70;75.90
66928;DHT22;59882;45.624;11.698;2023-05-16T08:49:43;16.60;76.30
66928;DHT22;59882;45.624;11.698;2023-05-16T08:52:12;16.60;77.00
66928;DHT22;59882;45.624;11.698;2023-05-16T08:54:38;16.60;76.80
66928;DHT22;59882;45.624;11.698;2023-05-16T08:57:05;16.60;77.00
66928;DHT22;59882;45.624;11.698;2023-05-16T08:59:32;16.60;76.80
66928;DHT22;59882;45.624;11.698;2023-05-16T09:01:57;16.70;76.30
66928;DHT22;59882;45.624;11.698;2023-05-16T09:04:23;16.80;74.90
66928;DHT22;59882;45.624;11.698;2023-05-16T09:06:51;16.90;76.00
66928;DHT22;59882;45.624;11.698;2023-05-16T09:09:16;17.10;75.80
66928;DHT22;59882;45.624;11.698;2023-05-16T09:11:42;17.30;75.00
66928;DHT22;59882;45.624;11.698;2023-05-16T09:14:08;17.40;74.30
66928;DHT22;59882;45.624;11.698;2023-05-16T09:16:33;17.40;73.10
66928;DHT22;59882;45.624;11.698;2023-05-16T09:19:00;17.50;72.70
66928;DHT22;59882;45.624;11.698;2023-05-16T09:21:31;17.50;73.10
66928;DHT22;59882;45.624;11.698;2023-05-16T09:24:04;17.50;73.10
66928;DHT22;59882;45.624;11.698;2023-05-16T09:26:33;17.60;73.30
66928;DHT22;59882;45.624;11.698;2023-05-16T09:28:59;17.70;73.50
66928;DHT22;59882;45.624;11.698;2023-05-16T09:31:26;17.80;73.00
66928;DHT22;59882;45.624;11.698;2023-05-16T09:33:55;17.90;73.60
66928;DHT22;59882;45.624;11.698;2023-05-16T09:36:21;18.00;72.50
66928;DHT22;59882;45.624;11.698;2023-05-16T09:38:47;18.10;71.40
66928;DHT22;59882;45.624;11.698;2023-05-16T09:41:14;18.20;71.70
66928;DHT22;59882;45.624;11.698;2023-05-16T09:43:40;18.20;71.70
66928;DHT22;59882;45.624;11.698;2023-05-16T09:46:07;18.20;71.80
66928;DHT22;59882;45.624;11.698;2023-05-16T09:48:33;18.20;72.20
66928;DHT22;59882;45.624;11.698;2023-05-16T09:50:59;18.30;72.30
66928;DHT22;59882;45.624;11.698;2023-05-16T09:53:30;18.30;72.40
66928;DHT22;59882;45.624;11.698;2023-05-16T09:56:04;18.30;72.40
66928;DHT22;59882;45.624;11.698;2023-05-16T09:58:33;18.30;72.30
66928;DHT22;59882;45.624;11.698;2023-05-16T10:01:00;18.30;72.80
66928;DHT22;59882;45.624;11.698;2023-05-16T10:03:26;18.40;72.50
66928;DHT22;59882;45.624;11.698;2023-05-16T10:05:53;18.40;72.70
66928;DHT22;59882;45.624;11.698;2023-05-16T10:08:23;18.40;73.50
66928;DHT22;59882;45.624;11.698;2023-05-16T10:10:54;18.40;73.10
66928;DHT22;59882;45.624;11.698;2023-05-16T10:13:22;18.50;73.00
66928;DHT22;59882;45.624;11.698;2023-05-16T10:15:49;18.50;72.90
66928;DHT22;59882;45.624;11.698;2023-05-16T10:18:17;18.50;73.00
66928;DHT22;59882;45.624;11.698;2023-05-16T10:20:45;18.50;73.30
66928;DHT22;59882;45.624;11.698;2023-05-16T10:23:17;18.50;74.00
66928;DHT22;59882;45.624;11.698;2023-05-16T10:25:45;18.50;73.90
66928;DHT22;59882;45.624;11.698;2023-05-16T10:28:12;18.60;74.10
66928;DHT22;59882;45.624;11.698;2023-05-16T10:30:43;18.60;73.90
66928;DHT22;59882;45.624;11.698;2023-05-16T10:33:18;18.70;73.60
66928;DHT22;59882;45.624;11.698;2023-05-16T10:35:45;18.70;73.80
66928;DHT22;59882;45.624;11.698;2023-05-16T10:38:14;18.70;73.50
66928;DHT22;59882;45.624;11.698;2023-05-16T10:43:28;18.60;73.30
66928;DHT22;59882;45.624;11.698;2023-05-16T10:45:57;18.60;73.10
66928;DHT22;59882;45.624;11.698;2023-05-16T10:48:28;18.60;73.20
66928;DHT22;59882;45.624;11.698;2023-05-16T10:50:54;18.50;73.10
66928;DHT22;59882;45.624;11.698;2023-05-16T11:01:26;18.50;73.20
66928;DHT22;59882;45.624;11.698;2023-05-16T11:06:26;18.60;73.80
66928;DHT22;59882;45.624;11.698;2023-05-16T11:11:42;18.60;73.70
66928;DHT22;59882;45.624;11.698;2023-05-16T11:14:08;18.70;73.60
66928;DHT22;59882;45.624;11.698;2023-05-16T11:16:35;18.70;74.10
66928;DHT22;59882;45.624;11.698;2023-05-16T11:19:07;18.70;73.80
66928;DHT22;59882;45.624;11.698;2023-05-16T11:24:31;18.70;73.50
66928;DHT22;59882;45.624;11.698;2023-05-16T11:27:00;18.70;72.70
66928;DHT22;59882;45.624;11.698;2023-05-16T11:29:31;18.60;72.30
66928;DHT22;59882;45.624;11.698;2023-05-16T11:32:07;18.60;70.40
66928;DHT22;59882;45.624;11.698;2023-05-16T11:34:35;18.50;71.00
66928;DHT22;59882;45.624;11.698;2023-05-16T11:37:04;18.60;69.00
66928;DHT22;59882;45.624;11.698;2023-05-16T11:39:31;18.60;67.70
66928;DHT22;59882;45.624;11.698;2023-05-16T11:41:56;18.60;68.80
66928;DHT22;59882;45.624;11.698;2023-05-16T11:44:22;18.60;68.10
66928;DHT22;59882;45.624;11.698;2023-05-16T11:46:48;18.70;68.30
66928;DHT22;59882;45.624;11.698;2023-05-16T11:49:14;18.80;68.10
66928;DHT22;59882;45.624;11.698;2023-05-16T11:51:41;18.80;67.80
66928;DHT22;59882;45.624;11.698;2023-05-16T11:54:11;18.90;67.60
66928;DHT22;59882;45.624;11.698;2023-05-16T11:56:38;18.90;67.80
66928;DHT22;59882;45.624;11.698;2023-05-16T11:59:06;18.90;65.80
66928;DHT22;59882;45.624;11.698;2023-05-16T12:01:38;18.90;67.00
66928;DHT22;59882;45.624;11.698;2023-05-16T12:04:11;19.00;67.30
66928;DHT22;59882;45.624;11.698;2023-05-16T12:06:38;19.00;65.50
66928;DHT22;59882;45.624;11.698;2023-05-16T12:09:05;19.10;64.90
66928;DHT22;59882;45.624;11.698;2023-05-16T12:11:43;19.20;64.00
66928;DHT22;59882;45.624;11.698;2023-05-16T12:14:11;19.30;62.50
66928;DHT22;59882;45.624;11.698;2023-05-16T12:16:38;19.30;64.40
66928;DHT22;59882;45.624;11.698;2023-05-16T12:19:07;19.40;64.40
66928;DHT22;59882;45.624;11.698;2023-05-16T12:21:33;19.40;64.60
66928;DHT22;59882;45.624;11.698;2023-05-16T12:23:59;19.40;64.40
66928;DHT22;59882;45.624;11.698;2023-05-16T12:26:33;19.40;64.10
66928;DHT22;59882;45.624;11.698;2023-05-16T12:29:00;19.60;63.80
66928;DHT22;59882;45.624;11.698;2023-05-16T12:31:28;19.70;64.10
66928;DHT22;59882;45.624;11.698;2023-05-16T12:33:57;19.80;64.10
66928;DHT22;59882;45.624;11.698;2023-05-16T12:36:24;19.90;63.80
66928;DHT22;59882;45.624;11.698;2023-05-16T12:38:51;20.00;62.90
66928;DHT22;59882;45.624;11.698;2023-05-16T12:41:18;20.10;62.60
66928;DHT22;59882;45.624;11.698;2023-05-16T12:43:44;20.30;62.20
66928;DHT22;59882;45.624;11.698;2023-05-16T12:46:10;20.40;59.30
66928;DHT22;59882;45.624;11.698;2023-05-16T12:48:39;20.30;59.90
66928;DHT22;59882;45.624;11.698;2023-05-16T12:51:13;20.30;59.90
66928;DHT22;59882;45.624;11.698;2023-05-16T12:53:48;20.30;59.40
66928;DHT22;59882;45.624;11.698;2023-05-16T12:56:14;20.30;60.00
66928;DHT22;59882;45.624;11.698;2023-05-16T12:58:41;20.40;56.90
66928;DHT22;59882;45.624;11.698;2023-05-16T13:01:07;20.60;57.60
66928;DHT22;59882;45.624;11.698;2023-05-16T13:03:33;20.80;58.70
66928;DHT22;59882;45.624;11.698;2023-05-16T13:05:59;20.90;58.00
66928;DHT22;59882;45.624;11.698;2023-05-16T13:08:26;21.10;57.40
66928;DHT22;59882;45.624;11.698;2023-05-16T13:10:52;21.10;56.50
66928;DHT22;59882;45.624;11.698;2023-05-16T13:13:17;21.00;55.50
66928;DHT22;59882;45.624;11.698;2023-05-16T13:15:44;20.90;56.60
66928;DHT22;59882;45.624;11.698;2023-05-16T13:18:10;21.00;58.10
66928;DHT22;59882;45.624;11.698;2023-05-16T13:20:36;21.00;57.20
66928;DHT22;59882;45.624;11.698;2023-05-16T13:23:03;21.20;58.70
66928;DHT22;59882;45.624;11.698;2023-05-16T13:25:30;21.40;60.90
66928;DHT22;59882;45.624;11.698;2023-05-16T13:27:55;21.50;59.50
66928;DHT22;59882;45.624;11.698;2023-05-16T13:30:21;21.40;60.80
66928;DHT22;59882;45.624;11.698;2023-05-16T13:32:46;21.40;58.00
66928;DHT22;59882;45.624;11.698;2023-05-16T13:35:12;21.40;57.90
66928;DHT22;59882;45.624;11.698;2023-05-16T13:37:38;21.30;57.00
66928;DHT22;59882;45.624;11.698;2023-05-16T13:40:06;21.30;56.00
66928;DHT22;59882;45.624;11.698;2023-05-16T13:42:35;21.20;57.10
66928;DHT22;59882;45.624;11.698;2023-05-16T13:45:02;21.20;56.00
66928;DHT22;59882;45.624;11.698;2023-05-16T13:47:27;21.10;56.70
66928;DHT22;59882;45.624;11.698;2023-05-16T13:49:53;21.20;57.20
66928;DHT22;59882;45.624;11.698;2023-05-16T13:52:19;21.40;57.70
66928;DHT22;59882;45.624;11.698;2023-05-16T13:54:45;21.70;56.40
66928;DHT22;59882;45.624;11.698;2023-05-16T13:57:11;21.90;55.80
66928;DHT22;59882;45.624;11.698;2023-05-16T13:59:36;22.10;52.60
66928;DHT22;59882;45.624;11.698;2023-05-16T14:02:02;21.90;53.40
66928;DHT22;59882;45.624;11.698;2023-05-16T14:04:28;21.90;54.00
66928;DHT22;59882;45.624;11.698;2023-05-16T14:06:53;21.70;52.80
66928;DHT22;59882;45.624;11.698;2023-05-16T14:09:20;21.40;52.60
66928;DHT22;59882;45.624;11.698;2023-05-16T14:11:46;21.20;54.20
66928;DHT22;59882;45.624;11.698;2023-05-16T14:14:11;21.00;54.50
66928;DHT22;59882;45.624;11.698;2023-05-16T14:16:37;20.90;55.40
66928;DHT22;59882;45.624;11.698;2023-05-16T14:19:02;20.90;55.50
66928;DHT22;59882;45.624;11.698;2023-05-16T14:21:28;20.90;55.90
66928;DHT22;59882;45.624;11.698;2023-05-16T14:23:54;20.90;56.60
66928;DHT22;59882;45.624;11.698;2023-05-16T14:26:19;20.90;56.20
66928;DHT22;59882;45.624;11.698;2023-05-16T14:28:50;20.90;56.00
66928;DHT22;59882;45.624;11.698;2023-05-16T14:31:15;20.90;55.30
66928;DHT22;59882;45.624;11.698;2023-05-16T14:33:41;20.80;56.60
66928;DHT22;59882;45.624;11.698;2023-05-16T14:36:08;20.80;57.00
66928;DHT22;59882;45.624;11.698;2023-05-16T14:38:34;20.70;57.00
66928;DHT22;59882;45.624;11.698;2023-05-16T14:41:00;20.70;57.50
66928;DHT22;59882;45.624;11.698;2023-05-16T14:43:25;20.60;57.40
66928;DHT22;59882;45.624;11.698;2023-05-16T14:45:51;20.70;57.40
66928;DHT22;59882;45.624;11.698;2023-05-16T14:48:17;20.70;57.50
66928;DHT22;59882;45.624;11.698;2023-05-16T14:50:42;20.60;57.30
66928;DHT22;59882;45.624;11.698;2023-05-16T14:53:08;20.60;57.00
66928;DHT22;59882;45.624;11.698;2023-05-16T14:55:33;20.60;56.50
66928;DHT22;59882;45.624;11.698;2023-05-16T14:57:59;20.50;57.30
66928;DHT22;59882;45.624;11.698;2023-05-16T15:00:25;20.40;57.70
66928;DHT22;59882;45.624;11.698;2023-05-16T15:02:51;20.40;58.30
66928;DHT22;59882;45.624;11.698;2023-05-16T15:05:17;20.40;58.20
66928;DHT22;59882;45.624;11.698;2023-05-16T15:07:42;20.40;58.40
66928;DHT22;59882;45.624;11.698;2023-05-16T15:10:09;20.40;59.20
66928;DHT22;59882;45.624;11.698;2023-05-16T15:12:35;20.40;58.70
66928;DHT22;59882;45.624;11.698;2023-05-16T15:15:01;20.40;58.40
66928;DHT22;59882;45.624;11.698;2023-05-16T15:17:26;20.40;56.10
66928;DHT22;59882;45.624;11.698;2023-05-16T15:19:52;20.30;57.10
66928;DHT22;59882;45.624;11.698;2023-05-16T15:22:19;20.30;57.30
66928;DHT22;59882;45.624;11.698;2023-05-16T15:24:45;20.30;57.20
66928;DHT22;59882;45.624;11.698;2023-05-16T15:27:11;20.40;57.20
66928;DHT22;59882;45.624;11.698;2023-05-16T15:29:36;20.30;57.00
66928;DHT22;59882;45.624;11.698;2023-05-16T15:32:03;20.30;56.70
66928;DHT22;59882;45.624;11.698;2023-05-16T15:34:30;20.20;57.00
66928;DHT22;59882;45.624;11.698;2023-05-16T15:36:57;20.10;56.20
66928;DHT22;59882;45.624;11.698;2023-05-16T15:39:23;20.10;56.90
66928;DHT22;59882;45.624;11.698;2023-05-16T15:41:50;20.00;57.40
66928;DHT22;59882;45.624;11.698;2023-05-16T15:44:16;20.00;57.80
66928;DHT22;59882;45.624;11.698;2023-05-16T15:46:42;20.00;58.20
66928;DHT22;59882;45.624;11.698;2023-05-16T15:49:08;19.90;58.30